createdAt,value
2023-04-22T00:00:18.429Z,38.57
2023-04-22T00:02:44.986Z,41.83
2023-04-22T00:05:12.116Z,39.57
2023-04-22T00:07:40.149Z,38.07
2023-04-22T00:10:08.128Z,38.70
2023-04-22T00:12:34.958Z,33.07
2023-04-22T00:15:01.597Z,31.40
2023-04-22T00:17:28.467Z,28.40
2023-04-22T00:19:54.937Z,27.53
2023-04-22T00:22:21.501Z,28.73
2023-04-22T00:24:47.944Z,29.23
2023-04-22T00:27:14.810Z,30.27
2023-04-22T00:29:41.431Z,27.87
2023-04-22T00:32:08.419Z,36.43
2023-04-22T00:34:35.208Z,37.10
2023-04-22T00:37:01.830Z,35.60
2023-04-22T00:39:28.674Z,30.63
2023-04-22T00:41:55.279Z,41.27
2023-04-22T00:44:23.048Z,38.60
2023-04-22T00:46:50.028Z,47.40
2023-04-22T00:49:17.368Z,41.27
2023-04-22T00:51:44.245Z,33.10
2023-04-22T00:54:10.697Z,36.67
2023-04-22T00:56:39.553Z,30.93
2023-04-22T00:59:07.232Z,22.33
2023-04-22T01:01:34.099Z,20.30
2023-04-22T01:04:01.931Z,19.73
2023-04-22T01:06:30.192Z,24.27
2023-04-22T01:08:57.113Z,26.37
2023-04-22T01:11:24.358Z,25.13
2023-04-22T01:13:51.557Z,24.73
2023-04-22T01:16:19.192Z,30.53
2023-04-22T01:18:46.056Z,32.67
2023-04-22T01:21:12.894Z,31.13
2023-04-22T01:23:39.571Z,26.57
2023-04-22T01:26:06.528Z,35.50
2023-04-22T01:28:33.015Z,41.23
2023-04-22T01:30:59.995Z,41.33
2023-04-22T01:33:26.669Z,31.57
2023-04-22T01:35:53.469Z,29.40
2023-04-22T01:38:19.939Z,21.73
2023-04-22T01:40:46.689Z,22.50
2023-04-22T01:43:13.134Z,18.87
2023-04-22T01:45:39.675Z,19.23
2023-04-22T01:48:07.242Z,18.83
2023-04-22T01:50:34.263Z,22.40
2023-04-22T01:53:01.570Z,25.20
2023-04-22T01:55:28.186Z,34.17
2023-04-22T01:57:55.635Z,47.13
2023-04-22T02:00:22.472Z,39.80
2023-04-22T02:02:49.131Z,41.80
2023-04-22T02:05:16.367Z,40.73
2023-04-22T02:07:42.877Z,37.53
2023-04-22T02:10:10.086Z,39.80
2023-04-22T02:12:36.511Z,40.73
2023-04-22T02:15:03.596Z,37.67
2023-04-22T02:17:30.105Z,36.40
2023-04-22T02:19:57.081Z,36.90
2023-04-22T02:22:23.921Z,39.20
2023-04-22T02:24:50.415Z,36.80
2023-04-22T02:27:17.394Z,38.43
2023-04-22T02:29:43.919Z,34.80
2023-04-22T02:32:10.667Z,34.20
2023-04-22T02:34:37.174Z,34.43
2023-04-22T02:37:04.380Z,33.70
2023-04-22T02:39:30.921Z,32.60
2023-04-22T02:41:57.707Z,33.60
2023-04-22T02:44:24.188Z,33.67
2023-04-22T02:46:51.121Z,34.60
2023-04-22T02:49:17.750Z,35.17
2023-04-22T02:51:44.520Z,33.10
2023-04-22T02:54:11.373Z,35.93
2023-04-22T02:56:37.872Z,36.43
2023-04-22T02:59:04.753Z,36.43
2023-04-22T03:01:31.704Z,34.97
2023-04-22T03:03:58.464Z,36.50
2023-04-22T03:06:25.459Z,35.90
2023-04-22T03:08:52.271Z,36.03
2023-04-22T03:11:18.748Z,31.37
2023-04-22T03:13:45.640Z,38.80
2023-04-22T03:16:12.189Z,35.70
2023-04-22T03:18:39.115Z,35.37
2023-04-22T03:21:05.668Z,37.20
2023-04-22T03:23:32.422Z,36.87
2023-04-22T03:25:59.242Z,31.33
2023-04-22T03:28:25.697Z,31.83
2023-04-22T03:30:52.516Z,31.97
2023-04-22T03:33:19.066Z,31.63
2023-04-22T03:35:48.815Z,33.07
2023-04-22T03:38:15.868Z,30.50
2023-04-22T03:40:43.619Z,34.07
2023-04-22T03:43:10.067Z,37.17
2023-04-22T03:45:37.062Z,36.27
2023-04-22T03:48:04.210Z,30.47
2023-04-22T03:50:30.828Z,34.00
2023-04-22T03:52:57.660Z,37.47
2023-04-22T03:55:24.155Z,34.13
2023-04-22T03:57:50.934Z,30.00
2023-04-22T04:00:17.618Z,27.37
2023-04-22T04:02:44.541Z,29.87
2023-04-22T04:05:11.710Z,32.10
2023-04-22T04:07:38.246Z,28.73
2023-04-22T04:10:05.718Z,31.87
2023-04-22T04:12:32.188Z,33.67
2023-04-22T04:14:59.019Z,33.07
2023-04-22T04:17:26.065Z,36.53
2023-04-22T04:19:53.450Z,33.57
2023-04-22T04:22:20.330Z,33.73
2023-04-22T04:24:47.364Z,33.63
2023-04-22T04:27:14.406Z,35.73
2023-04-22T04:29:41.548Z,32.13
2023-04-22T04:32:08.512Z,34.10
2023-04-22T04:34:35.017Z,30.37
2023-04-22T04:37:01.465Z,29.77
2023-04-22T04:39:28.317Z,29.27
2023-04-22T04:41:55.751Z,31.23
2023-04-22T04:44:22.183Z,29.80
2023-04-22T04:46:49.095Z,29.93
2023-04-22T04:49:15.972Z,28.70
2023-04-22T04:51:42.460Z,28.23
2023-04-22T04:54:09.503Z,28.83
2023-04-22T04:56:35.988Z,27.40
2023-04-22T04:59:02.459Z,26.93
2023-04-22T05:01:28.973Z,26.33
2023-04-22T05:03:55.629Z,27.23
2023-04-22T05:06:22.618Z,25.83
2023-04-22T05:08:49.073Z,24.00
2023-04-22T05:11:16.015Z,23.77
2023-04-22T05:13:42.460Z,23.00
2023-04-22T05:16:09.179Z,22.77
2023-04-22T05:18:35.678Z,23.73
2023-04-22T05:21:02.506Z,26.13
2023-04-22T05:23:28.953Z,29.13
2023-04-22T05:25:55.802Z,25.50
2023-04-22T05:28:22.663Z,26.67
2023-04-22T05:30:49.106Z,23.97
2023-04-22T05:33:15.888Z,21.67
2023-04-22T05:35:42.429Z,18.43
2023-04-22T05:38:08.968Z,18.50
2023-04-22T05:40:35.411Z,20.67
2023-04-22T05:43:02.322Z,20.17
2023-04-22T05:45:28.836Z,21.33
2023-04-22T05:47:55.689Z,21.60
2023-04-22T05:50:23.426Z,19.83
2023-04-22T05:52:50.002Z,17.90
2023-04-22T05:55:16.730Z,18.63
2023-04-22T05:57:43.173Z,18.77
2023-04-22T06:00:10.180Z,18.13
2023-04-22T06:02:37.170Z,17.80
2023-04-22T06:05:04.004Z,18.17
2023-04-22T06:07:31.141Z,17.33
2023-04-22T06:12:44.343Z,18.07
2023-04-22T06:15:11.113Z,18.33
2023-04-22T06:17:37.651Z,18.57
2023-04-22T06:20:04.367Z,18.00
2023-04-22T06:22:30.877Z,17.83
2023-04-22T06:24:57.728Z,15.83
2023-04-22T06:27:24.225Z,16.73
2023-04-22T06:29:50.718Z,15.33
2023-04-22T06:32:17.205Z,15.37
2023-04-22T06:34:44.012Z,15.47
2023-04-22T06:37:10.596Z,15.87
2023-04-22T06:39:37.300Z,13.80
2023-04-22T06:42:04.397Z,14.60
2023-04-22T06:44:30.859Z,14.13
2023-04-22T06:46:58.265Z,13.70
2023-04-22T06:49:25.136Z,14.30
2023-04-22T06:51:51.673Z,11.83
2023-04-22T06:54:18.134Z,10.80
2023-04-22T06:56:44.780Z,10.60
2023-04-22T06:59:11.573Z,9.53
2023-04-22T07:01:38.048Z,9.10
2023-04-22T07:04:04.918Z,8.97
2023-04-22T07:06:31.406Z,6.70
2023-04-22T07:08:58.270Z,6.23
2023-04-22T07:11:24.766Z,6.97
2023-04-22T07:13:51.604Z,6.73
2023-04-22T07:16:18.122Z,6.73
2023-04-22T07:18:44.894Z,6.37
2023-04-22T07:21:11.342Z,6.20
2023-04-22T07:23:37.777Z,6.27
2023-04-22T07:26:04.736Z,5.50
2023-04-22T07:28:31.362Z,5.53
2023-04-22T07:30:57.848Z,5.13
2023-04-22T07:33:24.321Z,5.10
2023-04-22T07:35:51.135Z,4.70
2023-04-22T07:38:17.638Z,4.90
2023-04-22T07:40:44.431Z,5.10
2023-04-22T07:43:10.882Z,4.23
2023-04-22T07:45:37.432Z,4.63
2023-04-22T07:48:04.929Z,4.70
2023-04-22T07:50:31.700Z,4.13
2023-04-22T07:52:58.448Z,4.40
2023-04-22T07:55:24.941Z,4.00
2023-04-22T07:57:51.390Z,3.87
2023-04-22T08:00:18.357Z,3.40
2023-04-22T08:02:44.945Z,3.13
2023-04-22T08:05:11.867Z,3.67
2023-04-22T08:07:38.394Z,3.47
2023-04-22T08:10:06.124Z,3.27
2023-04-22T08:12:32.590Z,3.33
2023-04-22T08:14:59.424Z,3.33
2023-04-22T08:17:26.555Z,3.20
2023-04-22T08:19:53.047Z,3.40
2023-04-22T08:22:19.842Z,3.10
2023-04-22T08:24:46.729Z,3.67
2023-04-22T08:27:13.218Z,3.40
2023-04-22T08:29:39.945Z,3.70
2023-04-22T08:32:06.625Z,3.50
2023-04-22T08:34:33.110Z,3.53
2023-04-22T08:36:59.645Z,3.40
2023-04-22T08:39:26.159Z,3.90
2023-04-22T08:41:53.246Z,3.67
2023-04-22T08:44:21.022Z,3.73
2023-04-22T08:46:48.401Z,3.60
2023-04-22T08:49:15.785Z,4.37
2023-04-22T08:51:43.172Z,4.00
2023-04-22T08:54:10.791Z,4.47
2023-04-22T08:56:43.167Z,4.00
2023-04-22T08:59:13.509Z,4.13
2023-04-22T09:01:41.515Z,3.97
2023-04-22T09:04:10.585Z,3.47
2023-04-22T09:06:39.258Z,3.43
2023-04-22T09:09:06.028Z,3.57
2023-04-22T09:11:33.183Z,3.70
2023-04-22T09:14:00.184Z,3.70
2023-04-22T09:16:26.703Z,4.00
2023-04-22T09:18:53.214Z,3.33
2023-04-22T09:21:19.966Z,3.57
2023-04-22T09:23:54.495Z,3.70
2023-04-22T09:26:25.611Z,3.50
2023-04-22T09:28:54.080Z,3.20
2023-04-22T09:31:21.856Z,3.83
2023-04-22T09:33:54.190Z,3.40
2023-04-22T09:36:27.706Z,3.10
2023-04-22T09:38:56.093Z,3.30
2023-04-22T09:41:30.064Z,3.37
2023-04-22T09:43:58.333Z,3.47
2023-04-22T09:46:27.348Z,3.80
2023-04-22T09:48:58.388Z,3.30
2023-04-22T09:51:25.697Z,3.57
2023-04-22T09:54:03.178Z,3.53
2023-04-22T09:56:51.329Z,3.60
2023-04-22T09:59:22.354Z,4.03
2023-04-22T10:01:50.687Z,4.13
2023-04-22T10:04:17.360Z,4.30
2023-04-22T10:06:43.914Z,5.00
2023-04-22T10:09:10.452Z,4.60
2023-04-22T10:11:37.190Z,4.40
2023-04-22T10:14:03.974Z,4.10
2023-04-22T10:16:32.508Z,4.10
2023-04-22T10:19:01.851Z,4.50
2023-04-22T10:21:29.968Z,3.60
2023-04-22T10:23:59.781Z,3.13
2023-04-22T10:26:42.126Z,3.37
2023-04-22T10:29:13.392Z,3.20
2023-04-22T10:31:40.220Z,3.67
2023-04-22T10:34:14.595Z,3.30
2023-04-22T10:36:56.217Z,3.40
2023-04-22T10:39:23.899Z,3.23
2023-04-22T10:42:07.571Z,3.33
2023-04-22T10:44:52.803Z,3.43
2023-04-22T10:47:26.415Z,3.80
2023-04-22T10:50:11.562Z,3.73
2023-04-22T10:52:38.604Z,3.60
2023-04-22T10:55:05.318Z,3.67
2023-04-22T10:57:37.302Z,3.63
2023-04-22T11:00:19.138Z,3.43
2023-04-22T11:02:47.085Z,3.67
2023-04-22T11:05:27.749Z,3.47
2023-04-22T11:08:02.074Z,4.10
2023-04-22T11:10:48.846Z,4.10
2023-04-22T11:13:17.823Z,3.50
2023-04-22T11:15:47.186Z,3.60
2023-04-22T11:18:20.115Z,3.80
2023-04-22T11:20:47.500Z,3.33
2023-04-22T11:23:22.431Z,3.47
2023-04-22T11:26:04.367Z,3.63
2023-04-22T11:28:31.538Z,3.60
2023-04-22T11:31:06.671Z,4.03
2023-04-22T11:33:34.920Z,3.53
2023-04-22T11:36:01.756Z,3.77
2023-04-22T11:38:28.291Z,3.47
2023-04-22T11:40:56.210Z,3.37
2023-04-22T11:43:22.684Z,3.13
2023-04-22T11:45:49.244Z,3.20
2023-04-22T11:48:15.936Z,3.53
2023-04-22T11:50:43.279Z,3.30
2023-04-22T11:53:21.422Z,3.53
2023-04-22T11:55:50.505Z,3.07
2023-04-22T11:58:19.464Z,3.50
2023-04-22T12:00:47.120Z,3.73
2023-04-22T12:03:19.816Z,3.30
2023-04-22T12:05:54.498Z,3.47
2023-04-22T12:08:23.726Z,3.37
2023-04-22T12:10:57.251Z,3.50
2023-04-22T12:13:25.309Z,3.50
2023-04-22T12:16:00.197Z,3.90
2023-04-22T12:18:34.782Z,3.40
2023-04-22T12:21:11.891Z,3.50
2023-04-22T12:24:00.451Z,3.30
2023-04-22T12:26:27.887Z,3.73
2023-04-22T12:28:56.666Z,3.53
2023-04-22T12:31:23.348Z,3.90
2023-04-22T12:33:50.516Z,3.43
2023-04-22T12:36:19.173Z,3.80
2023-04-22T12:38:45.615Z,3.60
2023-04-22T12:41:12.579Z,3.30
2023-04-22T12:43:39.026Z,3.40
2023-04-22T12:46:07.578Z,3.10
2023-04-22T12:48:34.661Z,3.40
2023-04-22T12:51:01.156Z,3.23
2023-04-22T12:53:28.304Z,3.83
2023-04-22T12:55:55.690Z,3.50
2023-04-22T12:58:22.275Z,4.10
2023-04-22T13:00:48.752Z,3.70
2023-04-22T13:03:15.749Z,3.73
2023-04-22T13:05:42.386Z,3.90
2023-04-22T13:08:08.989Z,3.70
2023-04-22T13:10:36.177Z,3.70
2023-04-22T13:13:15.822Z,3.60
2023-04-22T13:15:45.079Z,3.83
2023-04-22T13:18:11.998Z,3.23
2023-04-22T13:20:38.996Z,3.87
2023-04-22T13:23:05.462Z,3.37
2023-04-22T13:25:32.061Z,3.73
2023-04-22T13:27:58.557Z,3.70
2023-04-22T13:30:25.034Z,3.50
2023-04-22T13:32:51.470Z,3.87
2023-04-22T13:35:21.249Z,3.70
2023-04-22T13:37:48.208Z,3.60
2023-04-22T13:40:15.478Z,3.50
2023-04-22T13:42:42.066Z,3.60
2023-04-22T13:45:09.081Z,3.93
2023-04-22T13:47:35.573Z,3.80
2023-04-22T13:50:02.429Z,3.97
2023-04-22T13:52:29.114Z,3.93
2023-04-22T13:54:55.804Z,4.07
2023-04-22T13:57:22.492Z,3.70
2023-04-22T13:59:50.525Z,3.93
2023-04-22T14:02:17.254Z,3.90
2023-04-22T14:04:44.025Z,4.13
2023-04-22T14:07:10.643Z,3.43
2023-04-22T14:09:37.104Z,3.80
2023-04-22T14:12:05.166Z,3.63
2023-04-22T14:14:31.993Z,3.57
2023-04-22T14:16:59.080Z,3.70
2023-04-22T14:19:25.604Z,3.67
2023-04-22T14:21:52.440Z,4.53
2023-04-22T14:24:19.264Z,4.10
2023-04-22T14:26:45.777Z,4.40
2023-04-22T14:29:12.262Z,4.00
2023-04-22T14:31:38.886Z,3.93
2023-04-22T14:34:05.429Z,3.80
2023-04-22T14:36:32.251Z,4.17
2023-04-22T14:38:59.385Z,4.00
2023-04-22T14:41:26.009Z,4.33
2023-04-22T14:43:52.903Z,4.00
2023-04-22T14:46:19.455Z,4.10
2023-04-22T14:48:46.328Z,3.80
2023-04-22T14:51:12.829Z,4.27
2023-04-22T14:53:39.719Z,3.80
2023-04-22T14:56:06.191Z,3.63
2023-04-22T14:58:33.139Z,3.03
2023-04-22T15:01:00.306Z,3.47
2023-04-22T15:03:27.080Z,3.67
2023-04-22T15:05:55.678Z,3.00
2023-04-22T15:08:22.401Z,3.67
2023-04-22T15:10:49.334Z,3.17
2023-04-22T15:13:16.306Z,3.37
2023-04-22T15:15:43.223Z,3.00
2023-04-22T15:18:09.738Z,2.90
2023-04-22T15:20:36.245Z,3.00
2023-04-22T15:23:03.255Z,2.80
2023-04-22T15:25:29.759Z,3.10
2023-04-22T15:27:56.878Z,3.00
2023-04-22T15:30:24.160Z,3.07
2023-04-22T15:32:51.197Z,2.70
2023-04-22T15:35:17.724Z,2.67
2023-04-22T15:37:45.450Z,2.50
2023-04-22T15:40:12.310Z,3.00
2023-04-22T15:42:38.831Z,2.80
2023-04-22T15:45:06.847Z,2.50
2023-04-22T15:47:34.126Z,2.87
2023-04-22T15:50:00.701Z,3.20
2023-04-22T15:52:27.544Z,3.00
2023-04-22T15:54:54.033Z,2.77
2023-04-22T15:57:20.848Z,2.40
2023-04-22T15:59:51.452Z,2.43
2023-04-22T16:02:23.407Z,2.50
2023-04-22T16:04:49.965Z,2.47
2023-04-22T16:07:16.814Z,2.90
2023-04-22T16:09:43.634Z,2.60
2023-04-22T16:12:10.077Z,3.17
2023-04-22T16:14:36.923Z,2.80
2023-04-22T16:17:03.950Z,2.70
2023-04-22T16:19:30.847Z,3.13
2023-04-22T16:21:57.818Z,2.80
2023-04-22T16:24:24.746Z,3.13
2023-04-22T16:26:51.743Z,3.03
2023-04-22T16:29:18.211Z,3.03
2023-04-22T16:31:44.769Z,3.07
2023-04-22T16:34:11.206Z,3.47
2023-04-22T16:36:37.667Z,3.07
2023-04-22T16:39:04.262Z,2.90
2023-04-22T16:41:31.132Z,3.03
2023-04-22T16:43:57.614Z,3.70
2023-04-22T16:46:24.472Z,3.63
2023-04-22T16:48:50.954Z,3.50
2023-04-22T16:51:17.829Z,3.07
2023-04-22T16:53:44.743Z,2.50
2023-04-22T16:56:11.233Z,3.27
2023-04-22T16:58:37.711Z,3.10
2023-04-22T17:01:04.305Z,2.80
2023-04-22T17:03:31.170Z,3.50
2023-04-22T17:05:57.755Z,3.60
2023-04-22T17:08:24.205Z,3.67
2023-04-22T17:10:51.858Z,3.30
2023-04-22T17:13:18.335Z,3.50
2023-04-22T17:15:45.008Z,3.13
2023-04-22T17:18:11.496Z,2.77
2023-04-22T17:20:38.296Z,2.93
2023-04-22T17:23:04.789Z,3.07
2023-04-22T17:25:31.292Z,3.20
2023-04-22T17:27:57.807Z,4.00
2023-04-22T17:30:24.662Z,4.00
2023-04-22T17:32:51.391Z,3.57
2023-04-22T17:35:18.012Z,3.50
2023-04-22T17:37:44.479Z,3.97
2023-04-22T17:40:11.278Z,3.40
2023-04-22T17:42:45.743Z,3.97
2023-04-22T17:45:12.926Z,4.60
2023-04-22T17:47:39.420Z,16.00
2023-04-22T17:50:06.977Z,7.37
2023-04-22T17:52:33.610Z,6.83
2023-04-22T17:55:00.378Z,6.50
2023-04-22T17:57:26.845Z,8.53
2023-04-22T17:59:53.319Z,7.90
2023-04-22T18:02:20.323Z,7.50
2023-04-22T18:04:46.892Z,5.97
2023-04-22T18:07:13.510Z,6.83
2023-04-22T18:09:40.118Z,7.83
2023-04-22T18:12:06.772Z,12.20
2023-04-22T18:14:33.370Z,9.03
2023-04-22T18:17:00.362Z,14.60
2023-04-22T18:19:27.044Z,24.23
2023-04-22T18:22:00.001Z,17.37
2023-04-22T18:24:27.647Z,11.97
2023-04-22T18:26:54.174Z,9.97
2023-04-22T18:29:20.626Z,8.20
2023-04-22T18:31:47.601Z,7.20
2023-04-22T18:34:14.988Z,6.90
2023-04-22T18:36:41.438Z,6.60
2023-04-22T18:39:07.915Z,4.77
2023-04-22T18:41:34.410Z,5.00
2023-04-22T18:44:01.329Z,5.47
2023-04-22T18:46:28.179Z,6.23
2023-04-22T18:48:54.651Z,6.50
2023-04-22T18:51:21.130Z,7.13
2023-04-22T18:53:47.633Z,7.33
2023-04-22T18:56:14.309Z,7.67
2023-04-22T18:58:40.797Z,7.60
2023-04-22T19:01:07.468Z,7.87
2023-04-22T19:03:34.105Z,8.17
2023-04-22T19:06:00.634Z,8.47
2023-04-22T19:08:27.127Z,9.67
2023-04-22T19:10:54.021Z,10.30
2023-04-22T19:13:29.355Z,10.23
2023-04-22T19:15:57.335Z,9.73
2023-04-22T19:18:23.913Z,10.43
2023-04-22T19:20:50.891Z,11.27
2023-04-22T19:23:17.452Z,10.40
2023-04-22T19:25:43.933Z,11.40
2023-04-22T19:28:10.478Z,13.20
2023-04-22T19:30:36.950Z,15.50
2023-04-22T19:33:03.684Z,16.47
2023-04-22T19:35:30.535Z,18.77
2023-04-22T19:37:57.369Z,18.37
2023-04-22T19:40:23.988Z,19.60
2023-04-22T19:42:50.450Z,18.30
2023-04-22T19:45:16.896Z,18.97
2023-04-22T19:47:43.554Z,19.70
2023-04-22T19:50:10.364Z,21.00
2023-04-22T19:52:36.872Z,22.50
2023-04-22T19:55:06.352Z,24.27
2023-04-22T19:57:33.633Z,24.23
2023-04-22T20:00:01.394Z,26.10
2023-04-22T20:02:28.310Z,24.87
2023-04-22T20:04:55.432Z,23.47
2023-04-22T20:07:22.383Z,22.57
2023-04-22T20:09:50.897Z,22.63
2023-04-22T20:12:18.187Z,22.47
2023-04-22T20:14:44.874Z,23.83
2023-04-22T20:17:11.600Z,23.53
2023-04-22T20:19:38.773Z,24.57
2023-04-22T20:22:08.550Z,24.20
2023-04-22T20:24:37.034Z,22.97
2023-04-22T20:27:04.368Z,23.47
2023-04-22T20:29:30.850Z,22.87
2023-04-22T20:31:57.545Z,22.83
2023-04-22T20:34:24.642Z,23.90
2023-04-22T20:36:51.639Z,24.57
2023-04-22T20:39:18.111Z,24.50
2023-04-22T20:41:45.491Z,24.10
2023-04-22T20:44:11.943Z,25.90
2023-04-22T20:46:38.929Z,26.40
2023-04-22T20:49:05.834Z,28.07
2023-04-22T20:51:32.292Z,29.43
2023-04-22T20:53:58.736Z,30.37
2023-04-22T20:56:25.607Z,30.30
2023-04-22T20:58:52.043Z,30.27
2023-04-22T21:01:19.017Z,30.17
2023-04-22T21:03:51.762Z,31.33
2023-04-22T21:06:19.621Z,29.37
2023-04-22T21:08:48.846Z,31.63
2023-04-22T21:11:15.771Z,30.23
2023-04-22T21:13:45.401Z,31.73
2023-04-22T21:16:13.316Z,31.17
2023-04-22T21:18:42.903Z,30.90
2023-04-22T21:21:10.234Z,30.97
2023-04-22T21:23:37.424Z,32.77
2023-04-22T21:26:04.863Z,29.53
2023-04-22T21:28:31.646Z,28.87
2023-04-22T21:30:58.423Z,27.43
2023-04-22T21:33:24.947Z,27.23
2023-04-22T21:35:51.555Z,28.53
2023-04-22T21:38:18.051Z,29.33
2023-04-22T21:40:44.838Z,28.97
2023-04-22T21:43:11.310Z,29.40
2023-04-22T21:45:37.753Z,28.17
2023-04-22T21:48:04.703Z,30.10
2023-04-22T21:50:31.795Z,31.27
2023-04-22T21:52:59.495Z,29.87
2023-04-22T21:55:26.018Z,30.77
2023-04-22T21:57:52.860Z,32.80
2023-04-22T22:00:19.369Z,32.07
2023-04-22T22:02:47.181Z,31.23
2023-04-22T22:05:15.163Z,32.83
2023-04-22T22:07:43.430Z,33.40
2023-04-22T22:10:12.899Z,34.90
2023-04-22T22:12:39.557Z,33.57
2023-04-22T22:15:07.795Z,32.33
2023-04-22T22:17:35.322Z,35.20
2023-04-22T22:20:01.793Z,34.40
2023-04-22T22:22:28.508Z,33.77
2023-04-22T22:24:55.027Z,34.97
2023-04-22T22:27:21.525Z,33.30
2023-04-22T22:29:48.452Z,32.47
2023-04-22T22:32:15.210Z,32.63
2023-04-22T22:34:41.984Z,33.30
2023-04-22T22:37:08.733Z,35.90
2023-04-22T22:39:35.809Z,34.97
2023-04-22T22:42:02.277Z,34.63
2023-04-22T22:44:28.741Z,36.77
2023-04-22T22:46:55.761Z,36.00
2023-04-22T22:49:22.670Z,34.53
2023-04-22T22:51:49.224Z,35.60
2023-04-22T22:54:16.249Z,37.20
2023-04-22T22:56:43.150Z,38.47
2023-04-22T22:59:09.626Z,36.63
2023-04-22T23:01:36.623Z,36.90
2023-04-22T23:04:04.485Z,37.87
2023-04-22T23:06:31.226Z,38.97
2023-04-22T23:08:58.186Z,39.00
2023-04-22T23:11:24.724Z,37.43
2023-04-22T23:13:51.584Z,37.67
2023-04-22T23:16:18.173Z,36.33
2023-04-22T23:18:45.350Z,36.97
2023-04-22T23:21:12.102Z,40.17
2023-04-22T23:23:41.187Z,38.43
2023-04-22T23:26:07.992Z,38.87
2023-04-22T23:28:34.855Z,37.30
2023-04-22T23:31:03.793Z,38.00
2023-04-22T23:33:34.283Z,37.63
2023-04-22T23:36:03.671Z,38.07
2023-04-22T23:38:30.161Z,37.90
2023-04-22T23:40:56.993Z,39.63
2023-04-22T23:43:23.431Z,38.67
2023-04-22T23:45:50.174Z,38.63
2023-04-22T23:48:16.647Z,38.10
2023-04-22T23:50:43.459Z,39.30
2023-04-22T23:53:10.242Z,40.33
2023-04-22T23:55:37.098Z,39.20
2023-04-22T23:58:04.043Z,41.43
